Huvudsida
METAR-TAF:

METAR-TAF

Flygplatser :

Persian Gulf International Airport

Asaluyeh, Iran

latitud: 27-22-46N, longitud: 52-44-15E, höjd: 8 m

Aktuellt väderrapport

Denna rapport gjordes för 47 minuter sedan, klockan 19:00 UTC
Stilla vind
Temperatur 16°C
Fuktighet 88%
Tryck 1013 hPa
Sikt 10 km eller mer
Inga moln under 1 500 m eller inga cumulonimbus

METAR: OIBP 281900Z 00000KT CAVOK 16/14 Q1013 A2992

Tid: 23:17 (19:47 UTC)


TAF: saknas

Aktuella väderrapporter och prognoser från 4000 flygplatser (METAR- och TAF-rapporter).

De tillgängliga stationerna syns som gula och röda prickar på kartan.

För musen över prickarna för att se namnen på stationerna.

Klicka sedan för att få väderrapporter och prognoser.

För att ändra kartan: Klicka på de gröna knapparna med ett svart kors på för att zooma in; den gröna knappen med ett streck på för att zooma ut; eller på de gröna pilarna för angränsande kartor.


METAR-TAF: